Contents area

METAR / TAF

Die METAR- und TAF-Liste ist aus technischen Gründen (Verfügbarkeit, Update-Zyklen) nicht für ein Meteo-Briefing gedacht. Benutzen Sie stattdessen skybriefing der Skyguide  oder das TAMSI (MeteoSchweiz-eigene Meteo Selfbriefing-Plattform für Firmen aus der Aviatik; Anfragen über das

Kontaktformular

METAR Switzerland

METAR     LFSB 311630Z 26005KT 9999 FEW050 SCT060 BKN120 23/13 Q1011
               NOSIG=
METAR     LSGC 311550Z VRB02KT 9999 FEW020 BKN025 BKN028 16/12 Q1014=
METAR     LSGC 311620Z 36004KT 280V050 9999 SCT019 BKN025 15/11
               Q1014=
METAR     LSGG 311550Z 35008KT 290V040 9999 FEW035 BKN050 23/14 Q1010
               NOSIG=
METAR     LSGG 311620Z 35007KT 290V030 9999 FEW030 BKN045 22/13 Q1010
               TEMPO SHRA=
METAR     LSGS 311550Z 25010KT 9999 SCT080 SCT140 24/15 Q1009=
METAR     LSGS 311620Z 25010KT 9999 SCT090 BKN140 24/15 Q1009=
METAR     LSMA 311550Z NIL=
METAR     LSMA 311620Z NIL=
METAR RRA LSMD 311550Z AUTO 33005KT 300V010 9999NDV FEW042 SCT048
               22/12 Q1012 RMK=
METAR RRA LSMD 311620Z AUTO 33005KT 9999NDV FEW049 SCT056 22/12 Q1012
               RMK=
METAR RRA LSME 311550Z AUTO VRB02KT 9999NDV OVC039 21/14 Q1012 RMK=
METAR RRA LSME 311620Z AUTO 34004KT 300V030 9999NDV OVC038 21/14
               Q1012 RMK=
METAR RRA LSMM 311550Z AUTO 14004KT 070V240 4000NDV SCT035 BKN059
               22/16 Q1011 RMK=
METAR RRA LSMM 311620Z AUTO 08007KT 040V120 4200NDV SCT029 BKN035
               21/16 Q1011 RMK=
METAR RRA LSMP 311550Z AUTO 36004KT 320V050 9999NDV BKN048 BKN063
               22/13 Q1011 RMK=
METAR RRA LSMP 311620Z AUTO 04003KT 350V080 9999NDV BKN047 22/14
               Q1011 RMK=
METAR     LSZA 311550Z 02005KT 9999 VCTS FEW030 FEW045CB BKN060 20/19
               Q1009 NOSIG=
METAR     LSZA 311620Z AUTO 15006KT 090V190 9999 -RA FEW042TCU SCT048
               20/18 Q1010=
METAR     LSZB 311550Z 34005KT 320V020 9999 FEW030 BKN038 21/14
               Q1011=
METAR     LSZB 311620Z 34006KT 310V020 9999 FEW032 BKN040 21/15
               Q1011=
METAR     LSZC 311550Z AUTO 35006KT 290V040 9999 FEW041 BKN046 BKN055
               21/14 Q1012=
METAR     LSZC 311620Z AUTO 34009KT 9999 BKN039 BKN043 21/14 Q1012=
METAR     LSZG 311550Z AUTO 02004KT 320V040 9999 BKN047 21/13 Q1012=
METAR     LSZG 311620Z AUTO 09003KT 060V120 9999 SCT040 BKN045 21/13
               Q1011=
METAR     LSZH 311550Z 29006KT 9999 FEW052 BKN056 21/12 Q1012 NOSIG=
METAR     LSZH 311620Z 28005KT 250V310 9999 BKN051 21/12 Q1012 NOSIG=
METAR RRA LSZL 311550Z AUTO 10005KT 050V210 2600NDV +RA FEW006 SCT025
               BKN035 20/20 Q1010 RMK=
METAR RRA LSZL 311620Z AUTO 08008KT 9999NDV -RA FEW021 SCT029 19/19
               Q1010 RERA RMK=
METAR     LSZR 311550Z 08004KT 060V120 9999 BKN045TCU 21/17 Q1012
               NOSIG RMK K=
METAR     LSZR 311620Z VRB02KT 9999 BKN050 21/16 Q1012 NOSIG RMK L=
METAR     LSZS 311550Z 19007KT 140V230 9999 -RA SCT050CB BKN060 13/09
               Q1017 RETSRA RMK U TL170=
METAR     LSZS 311620Z 14005KT 120V190 9999 -RA SCT044CB BKN060 12/10
               Q1016 RMK V TL170=
Updated on Saturday, 31 July 2021, 18:39

TAF Switzerland

TAF     LFSB 311105Z 3112/0112 28006KT 9999 SCT040 BKN075 PROB40
             TEMPO 3119/0103 5000 SHRA FEW045CB BKN060 TEMPO
             0103/0110 4000 RA BKN013 FEW030TCU OVC040 BECMG
             0110/0112 -SHRA FEW020TCU BKN030=
TAF     LSGC 311425Z 3115/3124 VRB02KT 9999 FEW015 SCT025 BKN035
             TEMPO 3118/3124 SHRA=
TAF     LSGG 311425Z 3115/0121 VRB03KT 9999 FEW040 BKN060 TX25/3115Z
             TN14/0104Z TX19/0115Z TEMPO 3118/0104 SHRA=
TAF     LSGS 311425Z 3115/3124 27057KT 9999 FEW060 SCT090 TEMPO
             3118/3121 SHRA FEW050TCU=
TAF     LSMA 310925Z 3110/0116 06007KT 9999 FEW120 TEMPO 3120/0102
             SHRA BECMG 0100/0102 SHRA PROB40 TEMPO 0100/0106 3500
             BKN014 BECMG 0107/0110 NSW PROB30 0113/0116 TSRA
             SCT050CB=
TAF     LSMD 310925Z 3110/0116 30003KT 9999 FEW020 SCT075 TEMPO
             3121/0102 SHRA BECMG 0100/0102 SHRA PROB40 TEMPO
             0100/0106 3500 BKN014 BECMG 0109/0112 NSW PROB30
             0113/0116 TSRA SCT050CB=
TAF     LSME 310925Z 3110/0116 03003KT 9999 SCT018 BKN030 TEMPO
             3121/0102 SHRA BECMG 0100/0102 SHRA PROB40 TEMPO
             0100/0106 3500 BKN014 BECMG 0108/0111 NSW PROB30
             0113/0116 TSRA SCT050CB=
TAF RRA LSMM 310925Z 3110/0116 25005KT 9999 FEW015 SCT040 BKN070
             BECMG 3111/3114 11010KT TEMPO 3113/0102 11015G25KT TEMPO
             3120/0102 SHRA BECMG 0100/0102 27008KT SHRA PROB40 TEMPO
             0100/0106 3500 BKN014 BECMG 0107/0110 NSW PROB30
             0113/0116 TSRA SCT050CB=
TAF     LSMP 310925Z 3110/0116 VRB03KT 9999 FEW030 BKN070 TEMPO
             3121/0104 SHRA PROB30 TEMPO 3121/0101 4900 +SHRA
             SCT040TCU=
TAF     LSZA 311425Z 3115/3124 18006KT 9999 SCT040 BKN070 TEMPO
             3115/3124 3000 TSRA SCT040CB BKN050 PROB30 TEMPO
             3115/3124 20015G30KT 2000 +TSGR BKN040CB BKN050=
TAF     LSZB 311425Z 3115/3124 34005KT 9999 BKN040 BECMG 3119/3122
             RA=
TAF     LSZG 311425Z 3115/3124 31006KT 9999 FEW040 BKN060 TEMPO
             3118/3121 SHRA SCT050TCU PROB30 TEMPO 3118/3121 TSRA
             SCT040CB BECMG 3121/3123 RA PROB30 TEMPO 3122/3124
             BKN014=
TAF     LSZH 311425Z 3115/0121 29007KT 9999 FEW040 BKN050 TX23/3115Z
             TN14/0106Z TX17/0114Z BECMG 3120/3123 RA PROB40 TEMPO
             0101/0106 BKN014 BECMG 0110/0113 NSW TEMPO 0114/0118
             SHRA SCT040TCU PROB30 TEMPO 0114/0118 27012G25KT TSRA
             SCT040CB=
TAF     LSZL 311125Z 3112/3121 24004KT 9999 FEW080 TEMPO 3112/3121
             SHRA PROB40 TEMPO 3112/3119 22010G25KT TSRA SCT030CB=
TAF     LSZR 311425Z 3115/3124 05004KT 9999 BKN060 BECMG 3121/3124
             RA=
TAF     LSZS 311425Z 3115/3124 24013KT 9999 SCT070 BKN100 TX18/3115Z
             TEMPO 3115/3124 SHRA SCT060TCU PROB30 TEMPO 3115/3124
             22018G30KT 4000 TSRA SCT040CB BECMG 3118/3121 30005KT=
Updated on Saturday, 31 July 2021, 18:11